Huvudsida
METAR-TAF:

METAR-TAF

Flygplatser :

Halli Airport

Jämsä, Finland

latitud: 61-51N, longitud: 024-48E, höjd: 143 m

Aktuellt väderrapport

Denna rapport gjordes för 11 minuter sedan, klockan 06:20 UTC
Vind 5 kt från sydost, varierande mellan ost och syd
Temperatur 15°C
Fuktighet 51%
Tryck 1004 hPa
Sikt 10 km eller mer
Inga moln under 1 500 m eller inga cumulonimbus

METAR: EFHA 210620Z 14005KT 100V190 CAVOK 15/05 Q1004

Tid: 09:31 (06:31 UTC)

Väderprognos

Denna rapport gjordes för 50 minuter sedan, klockan 05:41 UTC
Prognos gäller från 21 kl. 06 UTC till 21 kl. 14 UTC
Vind 3 kt från syd/sydost
Sikt 10 km eller mer
Inga moln under 1 500 m eller inga cumulonimbus
Temporärt
från 21 kl. 12 UTC till 21 kl. 14 UTC
regn

TAF: EFHA 210541Z 2106/2114 16003KT CAVOK TEMPO 2112/2114 RA

Aktuella väderrapporter och prognoser från 4000 flygplatser (METAR- och TAF-rapporter).

De tillgängliga stationerna syns som gula och röda prickar på kartan.

För musen över prickarna för att se namnen på stationerna.

Klicka sedan för att få väderrapporter och prognoser.

För att ändra kartan: Klicka på de gröna knapparna med ett svart kors på för att zooma in; den gröna knappen med ett streck på för att zooma ut; eller på de gröna pilarna för angränsande kartor.


METAR-TAF: